Terminal Aerodrome Forecast
Issued by NWS

Current Version | Previous Version | Text Only | Print | Product List | Glossary On
Versions: 1 2 3 4 5 6 7 8 9 10 11 12 13 14 15 16 17 18
948
FTUS41 KBTV 090537
TAFMSS
TAF
KMSS 090537Z 0906/1006 07012KT 3SM -SN BR OVC035
      TEMPO 0906/0910 2SM -SN BR OVC025
     FM091000 07012KT 2SM -SN BR OVC025
     FM091500 05009KT 2SM -SN BR OVC020
     FM100000 05005KT 2SM -SN BR OVC015=

USA.gov is the U.S. government's official web portal to all federal, state and local government web resources and services.